Paradise Hot Springs, Idaho
Current Conditions -  °F | °C
As of 6:57 AM on Wednesday 28 Jan 2015 (Local Time) from KMUO Reporting Station
Moderate Fog Moderate Fog  
Wind Chill: 24°   Ceiling: 11000
Heat Index: 32°   Visibility: 0.5mi
Dew Point: 32°   Wind: 9mph
Humidity: 99%   Direction: 280°W
Pressure: 30.27"   Gusts: NA
Location:  43.2609°N, 115.781°W
Report Text: KMUO 281357Z 28008KT 1/2SM R30/2400FT FZFG SCT001 BKN110 OVC170 00/00 A3027 RMK SLP271 T10001002
Loading
Personal Weather Stations






























Interactive Weather Map New forecast layout! Learn more

10-Day Weather Forecast

Advertisements
Track Severe Weather on mobile